createdAt,value
2022-11-05T00:00:29.814Z,98780.13
2022-11-05T00:03:16.044Z,98797.88
2022-11-05T00:06:05.211Z,98791.66
2022-11-05T00:08:51.111Z,98771.28
2022-11-05T00:11:18.625Z,98772.47
2022-11-05T00:14:04.704Z,98803.59
2022-11-05T00:16:46.562Z,98797.25
2022-11-05T00:19:14.903Z,98798.44
2022-11-05T00:22:05.055Z,98799.81
2022-11-05T00:24:54.218Z,98788.28
2022-11-05T00:27:21.481Z,98799.69
2022-11-05T00:29:48.625Z,98793.81
2022-11-05T00:32:16.305Z,98773.91
2022-11-05T00:34:43.274Z,98783.59
2022-11-05T00:37:10.342Z,98797.44
2022-11-05T00:39:37.432Z,98804.16
2022-11-05T00:42:23.142Z,98803.94
2022-11-05T00:45:00.972Z,98804.84
2022-11-05T00:47:47.590Z,98823.06
2022-11-05T00:50:14.915Z,98808.03
2022-11-05T00:52:57.801Z,98809.44
2022-11-05T00:55:46.110Z,98832.38
2022-11-05T00:58:22.742Z,98814.34
2022-11-05T01:00:56.180Z,98834.09
2022-11-05T01:03:31.688Z,98833.19
2022-11-05T01:06:10.563Z,98823.16
2022-11-05T01:08:38.328Z,98835.16
2022-11-05T01:11:37.256Z,98839.25
2022-11-05T01:14:08.622Z,98855.22
2022-11-05T01:16:36.605Z,98838.72
2022-11-05T01:19:06.096Z,98832.34
2022-11-05T01:21:33.847Z,98841.47
2022-11-05T01:24:01.273Z,98851.38
2022-11-05T01:26:28.459Z,98839.50
2022-11-05T01:28:57.845Z,98855.53
2022-11-05T01:31:25.143Z,98813.81
2022-11-05T01:33:52.090Z,98833.19
2022-11-05T01:36:19.495Z,98843.06
2022-11-05T01:38:46.442Z,98852.72
2022-11-05T01:41:13.411Z,98831.53
2022-11-05T01:43:56.659Z,98830.81
2022-11-05T01:46:33.835Z,98844.59
2022-11-05T01:49:17.315Z,98859.47
2022-11-05T01:51:46.191Z,98834.88
2022-11-05T01:54:18.669Z,98821.41
2022-11-05T01:56:53.244Z,98832.34
2022-11-05T01:59:35.101Z,98850.19
2022-11-05T02:02:03.791Z,98846.97
2022-11-05T02:04:36.269Z,98834.59
2022-11-05T02:07:06.306Z,98833.00
2022-11-05T02:10:03.443Z,98835.34
2022-11-05T02:12:33.062Z,98830.88
2022-11-05T02:15:00.479Z,98838.50
2022-11-05T02:17:35.964Z,98832.94
2022-11-05T02:20:11.802Z,98846.50
2022-11-05T02:23:19.335Z,98853.75
2022-11-05T02:26:37.559Z,98831.03
2022-11-05T02:29:29.894Z,98840.75
2022-11-05T02:32:24.875Z,98849.84
2022-11-05T02:35:31.926Z,98852.91
2022-11-05T02:38:37.574Z,98849.75
2022-11-05T02:41:21.796Z,98855.56
2022-11-05T02:44:20.259Z,98849.13
2022-11-05T02:46:57.300Z,98839.84
2022-11-05T02:49:59.298Z,98852.41
2022-11-05T02:53:03.243Z,98875.53
2022-11-05T02:56:15.228Z,98854.94
2022-11-05T02:58:42.211Z,98850.59
2022-11-05T03:06:22.282Z,98870.47
2022-11-05T03:09:10.599Z,98866.69
2022-11-05T03:12:24.331Z,98878.13
2022-11-05T03:15:41.523Z,98895.59
2022-11-05T03:18:39.485Z,98896.06
2022-11-05T03:21:24.961Z,98878.56
2022-11-05T03:24:03.362Z,98903.66
2022-11-05T03:26:37.998Z,98900.09
2022-11-05T03:29:11.566Z,98877.91
2022-11-05T03:31:40.903Z,98907.19
2022-11-05T03:34:11.173Z,98906.47
2022-11-05T03:36:44.320Z,98877.50
2022-11-05T03:39:29.540Z,98925.50
2022-11-05T03:41:59.130Z,98921.66
2022-11-05T03:44:33.113Z,98929.56
2022-11-05T03:47:13.974Z,98931.13
2022-11-05T03:50:07.620Z,98916.75
2022-11-05T03:52:51.428Z,98900.78
2022-11-05T03:55:19.015Z,98930.16
2022-11-05T03:57:51.284Z,98931.75
2022-11-05T04:00:18.532Z,98946.00
2022-11-05T04:02:45.624Z,98941.22
2022-11-05T04:05:12.990Z,98931.75
2022-11-05T04:07:58.436Z,98941.97
2022-11-05T04:10:43.881Z,98965.16
2022-11-05T04:13:27.928Z,98946.13
2022-11-05T04:16:15.485Z,98934.06
2022-11-05T04:18:42.969Z,98947.72
2022-11-05T04:21:30.318Z,98974.13
2022-11-05T04:24:10.102Z,98969.22
2022-11-05T04:26:41.091Z,98990.16
2022-11-05T04:29:27.297Z,98970.75
2022-11-05T04:31:55.278Z,98970.34
2022-11-05T04:34:22.954Z,98983.06
2022-11-05T04:36:53.277Z,98984.72
2022-11-05T04:39:21.503Z,98989.97
2022-11-05T04:41:49.064Z,98977.69
2022-11-05T04:44:17.192Z,98990.44
2022-11-05T04:46:44.321Z,98987.59
2022-11-05T04:49:11.273Z,98991.50
2022-11-05T04:51:38.517Z,98991.75
2022-11-05T04:54:05.712Z,98996.03
2022-11-05T04:56:32.840Z,98993.41
2022-11-05T04:58:59.938Z,98991.09
2022-11-05T05:01:27.234Z,99008.50
2022-11-05T05:03:55.632Z,98984.59
2022-11-05T05:06:23.049Z,98998.19
2022-11-05T05:08:51.600Z,99013.88
2022-11-05T05:11:21.296Z,99009.63
2022-11-05T05:13:49.336Z,99017.53
2022-11-05T05:16:23.426Z,99033.03
2022-11-05T05:18:51.678Z,98996.19
2022-11-05T05:21:39.179Z,99024.69
2022-11-05T05:24:33.847Z,99037.13
2022-11-05T05:27:01.449Z,99029.84
2022-11-05T05:29:28.389Z,99012.84
2022-11-05T05:31:55.462Z,99006.16
2022-11-05T05:34:22.726Z,99030.88
2022-11-05T05:36:49.693Z,99017.06
2022-11-05T05:39:16.984Z,99016.78
2022-11-05T05:41:43.917Z,99003.72
2022-11-05T05:44:11.056Z,99036.97
2022-11-05T05:46:38.039Z,99052.41
2022-11-05T05:49:11.079Z,99052.91
2022-11-05T05:51:39.599Z,99050.63
2022-11-05T05:54:06.793Z,99051.78
2022-11-05T05:56:33.705Z,99049.38
2022-11-05T05:59:00.659Z,99049.38
2022-11-05T06:01:27.839Z,99050.53
2022-11-05T06:03:54.789Z,99074.34
2022-11-05T06:06:22.678Z,99056.00
2022-11-05T06:08:49.722Z,99063.50
2022-11-05T06:11:17.146Z,99062.13
2022-11-05T06:13:44.127Z,99081.44
2022-11-05T06:16:11.412Z,99062.50
2022-11-05T06:18:38.995Z,99057.78
2022-11-05T06:21:12.662Z,99086.94
2022-11-05T06:23:42.334Z,99096.59
2022-11-05T06:26:17.145Z,99063.03
2022-11-05T06:28:45.278Z,99087.16
2022-11-05T06:31:14.518Z,99082.97
2022-11-05T06:33:41.722Z,99107.44
2022-11-05T06:36:13.846Z,99108.66
2022-11-05T06:38:40.863Z,99114.47
2022-11-05T06:41:10.502Z,99107.78
2022-11-05T06:43:38.413Z,99114.38
2022-11-05T06:46:06.106Z,99114.59
2022-11-05T06:48:33.504Z,99143.59
2022-11-05T06:51:00.907Z,99136.84
2022-11-05T06:53:28.113Z,99107.59
2022-11-05T06:55:55.335Z,99147.47
2022-11-05T06:58:22.775Z,99158.97
2022-11-05T07:00:49.910Z,99157.28
2022-11-05T07:03:17.389Z,99149.16
2022-11-05T07:05:48.399Z,99139.78
2022-11-05T07:08:16.255Z,99161.72
2022-11-05T07:10:43.424Z,99167.16
2022-11-05T07:13:11.225Z,99168.38
2022-11-05T07:15:38.511Z,99190.97
2022-11-05T07:18:09.599Z,99199.91
2022-11-05T07:20:36.550Z,99145.31
2022-11-05T07:23:12.262Z,99199.66
2022-11-05T07:25:40.479Z,99195.28
2022-11-05T07:28:08.564Z,99220.69
2022-11-05T07:30:36.470Z,99224.28
2022-11-05T07:33:04.482Z,99215.25
2022-11-05T07:35:32.040Z,99222.03
2022-11-05T07:37:59.407Z,99219.13
2022-11-05T07:40:29.465Z,99221.44
2022-11-05T07:43:00.115Z,99233.22
2022-11-05T07:45:29.064Z,99208.41
2022-11-05T07:48:00.700Z,99221.84
2022-11-05T07:50:34.350Z,99237.22
2022-11-05T07:53:10.024Z,99226.06
2022-11-05T07:55:37.676Z,99224.97
2022-11-05T07:58:04.874Z,99231.94
2022-11-05T08:00:32.807Z,99247.38
2022-11-05T08:03:13.054Z,99249.22
2022-11-05T08:05:44.605Z,99266.94
2022-11-05T08:08:16.814Z,99267.78
2022-11-05T08:10:44.392Z,99263.34
2022-11-05T08:13:13.406Z,99259.03
2022-11-05T08:15:42.247Z,99291.84
2022-11-05T08:18:17.166Z,99272.78
2022-11-05T08:20:46.406Z,99263.72
2022-11-05T08:23:14.416Z,99290.34
2022-11-05T08:25:42.066Z,99311.06
2022-11-05T08:28:13.070Z,99245.91
2022-11-05T08:30:40.582Z,99294.16
2022-11-05T08:33:12.201Z,99314.03
2022-11-05T08:35:39.868Z,99306.81
2022-11-05T08:38:10.422Z,99297.81
2022-11-05T08:40:37.970Z,99328.22
2022-11-05T08:43:08.133Z,99304.50
2022-11-05T08:45:39.316Z,99324.06
2022-11-05T08:48:15.186Z,99307.09
2022-11-05T08:50:43.372Z,99317.56
2022-11-05T08:53:11.439Z,99327.78
2022-11-05T08:55:39.135Z,99345.13
2022-11-05T08:58:12.667Z,99335.56
2022-11-05T09:00:40.033Z,99309.50
2022-11-05T09:03:09.398Z,99331.28
2022-11-05T09:05:39.901Z,99351.59
2022-11-05T09:08:19.020Z,99326.00
2022-11-05T09:10:47.457Z,99348.25
2022-11-05T09:13:18.852Z,99364.75
2022-11-05T09:15:49.302Z,99368.03
2022-11-05T09:18:18.110Z,99328.13
2022-11-05T09:20:46.793Z,99360.75
2022-11-05T09:23:15.558Z,99339.56
2022-11-05T09:25:43.404Z,99330.66
2022-11-05T09:28:16.833Z,99372.59
2022-11-05T09:30:50.613Z,99348.66
2022-11-05T09:33:24.173Z,99344.53
2022-11-05T09:35:52.795Z,99342.69
2022-11-05T09:38:20.200Z,99347.75
2022-11-05T09:40:52.962Z,99373.25
2022-11-05T09:43:31.240Z,99372.22
2022-11-05T09:46:04.540Z,99343.25
2022-11-05T09:48:34.029Z,99321.88
2022-11-05T09:51:01.276Z,99397.16
2022-11-05T09:53:28.834Z,99372.91
2022-11-05T09:55:59.005Z,99354.41
2022-11-05T09:58:56.605Z,99373.91
2022-11-05T10:01:33.797Z,99369.47
2022-11-05T10:04:07.834Z,99421.28
2022-11-05T10:06:37.063Z,99377.78
2022-11-05T10:09:22.861Z,99389.19
2022-11-05T10:12:10.864Z,99428.31
2022-11-05T10:14:47.044Z,99389.88
2022-11-05T10:17:24.713Z,99404.44
2022-11-05T10:20:08.294Z,99458.91
2022-11-05T10:22:36.407Z,99427.16
2022-11-05T10:25:18.751Z,99417.88
2022-11-05T10:27:53.532Z,99461.88
2022-11-05T10:30:21.981Z,99445.84
2022-11-05T10:32:52.069Z,99441.66
2022-11-05T10:35:24.088Z,99456.19
2022-11-05T10:37:53.514Z,99435.72
2022-11-05T10:40:40.805Z,99451.78
2022-11-05T10:43:21.547Z,99464.03
2022-11-05T10:46:10.490Z,99443.88
2022-11-05T10:49:15.240Z,99425.47
2022-11-05T10:51:43.819Z,99493.72
2022-11-05T10:54:24.324Z,99448.88
2022-11-05T10:56:51.729Z,99503.38
2022-11-05T10:59:30.687Z,99472.97
2022-11-05T11:02:11.569Z,99436.13
2022-11-05T11:04:38.702Z,99448.38
2022-11-05T11:07:17.617Z,99475.09
2022-11-05T11:09:49.358Z,99442.91
2022-11-05T11:12:23.582Z,99494.84
2022-11-05T11:15:08.171Z,99449.69
2022-11-05T11:17:35.148Z,99469.75
2022-11-05T11:20:20.760Z,99507.88
2022-11-05T11:23:05.832Z,99462.47
2022-11-05T11:25:52.917Z,99480.31
2022-11-05T11:28:30.879Z,99505.91
2022-11-05T11:31:21.259Z,99499.78
2022-11-05T11:33:52.944Z,99472.13
2022-11-05T11:36:27.175Z,99497.81
2022-11-05T11:39:01.234Z,99477.25
2022-11-05T11:41:39.381Z,99512.00
2022-11-05T11:44:20.875Z,99512.06
2022-11-05T11:46:56.657Z,99448.47
2022-11-05T11:49:36.905Z,99438.50
2022-11-05T11:52:11.241Z,99449.63
2022-11-05T11:54:38.281Z,99451.19
2022-11-05T11:57:29.555Z,99479.72
2022-11-05T12:00:14.096Z,99500.00
2022-11-05T12:03:02.485Z,99482.91
2022-11-05T12:05:47.954Z,99451.13
2022-11-05T12:09:00.592Z,99434.47
2022-11-05T12:11:50.788Z,99424.75
2022-11-05T12:14:30.655Z,99477.19
2022-11-05T12:17:18.746Z,99461.53
2022-11-05T12:19:57.342Z,99450.59
2022-11-05T12:23:30.622Z,99434.88
2022-11-05T12:26:33.980Z,99509.72
2022-11-05T12:29:22.304Z,99506.25
2022-11-05T12:32:26.148Z,99434.69
2022-11-05T12:35:05.086Z,99475.59
2022-11-05T12:37:53.333Z,99473.31
2022-11-05T12:40:50.451Z,99416.72
2022-11-05T12:43:37.940Z,99472.09
2022-11-05T12:46:45.979Z,99413.97
2022-11-05T12:49:31.929Z,99424.06
2022-11-05T12:52:19.308Z,99454.84
2022-11-05T12:55:14.021Z,99409.84
2022-11-05T12:57:44.288Z,99484.69
2022-11-05T13:00:23.270Z,99482.09
2022-11-05T13:03:20.932Z,99444.47
2022-11-05T13:06:10.873Z,99453.19
2022-11-05T13:08:57.686Z,99402.94
2022-11-05T13:11:41.427Z,99455.31
2022-11-05T13:14:33.553Z,99461.28
2022-11-05T13:17:11.388Z,99412.75
2022-11-05T13:20:19.805Z,99410.19
2022-11-05T13:22:55.126Z,99377.66
2022-11-05T13:25:29.153Z,99402.94
2022-11-05T13:28:46.817Z,99375.66
2022-11-05T13:31:20.884Z,99352.25
2022-11-05T13:33:51.255Z,99380.03
2022-11-05T13:36:50.589Z,99367.75
2022-11-05T13:39:43.669Z,99335.00
2022-11-05T13:42:44.403Z,99361.91
2022-11-05T13:45:52.644Z,99391.50
2022-11-05T13:48:56.166Z,99399.91
2022-11-05T13:51:39.693Z,99374.50
2022-11-05T13:54:46.121Z,99371.56
2022-11-05T13:58:00.673Z,99399.84
2022-11-05T14:00:33.699Z,99357.63
2022-11-05T14:03:14.877Z,99425.31
2022-11-05T14:05:43.343Z,99388.25
2022-11-05T14:08:27.802Z,99395.25
2022-11-05T14:11:13.549Z,99391.84
2022-11-05T14:13:44.506Z,99384.13
2022-11-05T14:16:25.731Z,99440.56
2022-11-05T14:19:18.626Z,99419.50
2022-11-05T14:21:59.439Z,99421.25
2022-11-05T14:24:44.136Z,99388.25
2022-11-05T14:27:14.364Z,99371.03
2022-11-05T14:29:47.789Z,99360.94
2022-11-05T14:32:50.178Z,99421.94
2022-11-05T14:35:17.318Z,99357.66
2022-11-05T14:37:59.209Z,99398.78
2022-11-05T14:40:42.565Z,99409.94
2022-11-05T14:43:23.532Z,99369.53
2022-11-05T14:46:02.383Z,99365.75
2022-11-05T14:48:48.145Z,99339.97
2022-11-05T14:51:27.070Z,99355.19
2022-11-05T14:54:32.118Z,99355.97
2022-11-05T14:57:02.487Z,99342.41
2022-11-05T14:59:31.731Z,99385.63
2022-11-05T15:02:15.883Z,99322.22
2022-11-05T15:04:45.611Z,99403.19
2022-11-05T15:07:36.265Z,99412.63
2022-11-05T15:10:13.556Z,99351.34
2022-11-05T15:12:51.729Z,99403.66
2022-11-05T15:15:30.694Z,99443.47
2022-11-05T15:18:35.406Z,99426.91
2022-11-05T15:21:05.022Z,99389.13
2022-11-05T15:23:47.435Z,99396.25
2022-11-05T15:27:01.919Z,99366.31
2022-11-05T15:29:31.923Z,99352.78
2022-11-05T15:31:59.930Z,99374.91
2022-11-05T15:34:33.986Z,99364.63
2022-11-05T15:37:12.339Z,99355.00
2022-11-05T15:39:40.683Z,99355.94
2022-11-05T15:42:23.053Z,99342.19
2022-11-05T15:45:00.359Z,99315.25
2022-11-05T15:47:34.223Z,99382.22
2022-11-05T15:50:15.581Z,99354.59
2022-11-05T15:52:53.198Z,99365.81
2022-11-05T15:55:24.456Z,99360.22
2022-11-05T15:58:06.338Z,99360.97
2022-11-05T16:00:36.747Z,99341.03
2022-11-05T16:03:12.471Z,99416.59
2022-11-05T16:05:47.227Z,99371.06
2022-11-05T16:08:22.419Z,99392.56
2022-11-05T16:10:53.483Z,99349.22
2022-11-05T16:13:41.778Z,99383.53
2022-11-05T16:16:14.653Z,99324.00
2022-11-05T16:18:43.716Z,99340.34
2022-11-05T16:21:18.963Z,99348.63
2022-11-05T16:23:58.193Z,99349.53
2022-11-05T16:29:40.947Z,99393.22
2022-11-05T16:32:39.058Z,99393.50
2022-11-05T16:35:16.295Z,99363.72
2022-11-05T16:37:46.372Z,99354.88
2022-11-05T16:40:25.532Z,99383.75
2022-11-05T16:42:54.112Z,99363.72
2022-11-05T16:45:24.846Z,99366.75
2022-11-05T16:47:52.210Z,99338.47
2022-11-05T16:50:27.400Z,99362.16
2022-11-05T16:52:54.469Z,99374.13
2022-11-05T16:55:21.615Z,99349.53
2022-11-05T16:57:54.460Z,99363.28
2022-11-05T17:00:22.688Z,99354.06
2022-11-05T17:02:50.335Z,99384.16
2022-11-05T17:05:30.377Z,99380.19
2022-11-05T17:07:58.139Z,99419.91
2022-11-05T17:10:26.785Z,99390.59
2022-11-05T17:12:54.029Z,99389.34
2022-11-05T17:15:36.501Z,99364.06
2022-11-05T17:18:05.602Z,99351.38
2022-11-05T17:20:48.966Z,99390.28
2022-11-05T17:23:20.941Z,99361.28
2022-11-05T17:25:56.473Z,99359.22
2022-11-05T17:28:23.762Z,99396.41
2022-11-05T17:30:53.878Z,99399.16
2022-11-05T17:33:23.142Z,99404.22
2022-11-05T17:35:50.622Z,99401.31
2022-11-05T17:38:18.038Z,99366.28
2022-11-05T17:40:45.325Z,99398.69
2022-11-05T17:43:12.560Z,99356.66
2022-11-05T17:45:46.174Z,99357.59
2022-11-05T17:48:14.797Z,99373.38
2022-11-05T17:50:43.868Z,99319.00
2022-11-05T17:53:13.490Z,99358.47
2022-11-05T17:55:42.812Z,99346.19
2022-11-05T17:58:10.573Z,99340.97
2022-11-05T18:00:39.390Z,99374.44
2022-11-05T18:03:06.526Z,99328.31
2022-11-05T18:05:35.017Z,99326.78
2022-11-05T18:08:02.407Z,99343.69
2022-11-05T18:10:29.978Z,99315.75
2022-11-05T18:12:57.440Z,99376.03
2022-11-05T18:15:24.522Z,99349.38
2022-11-05T18:17:51.493Z,99393.00
2022-11-05T18:20:19.751Z,99371.59
2022-11-05T18:22:50.045Z,99330.78
2022-11-05T18:25:17.835Z,99402.63
2022-11-05T18:27:45.419Z,99372.84
2022-11-05T18:30:15.672Z,99375.81
2022-11-05T18:32:44.159Z,99399.78
2022-11-05T18:35:13.164Z,99381.22
2022-11-05T18:37:40.749Z,99362.31
2022-11-05T18:40:08.513Z,99404.16
2022-11-05T18:42:35.738Z,99384.41
2022-11-05T18:45:04.839Z,99364.56
2022-11-05T18:47:33.985Z,99403.78
2022-11-05T18:50:02.013Z,99353.16
2022-11-05T18:52:31.549Z,99306.53
2022-11-05T18:54:59.387Z,99360.69
2022-11-05T18:57:27.682Z,99343.53
2022-11-05T18:59:56.019Z,99401.06
2022-11-05T19:02:23.836Z,99393.50
2022-11-05T19:05:14.442Z,99327.50
2022-11-05T19:07:39.216Z,99333.88
2022-11-05T19:10:07.469Z,99296.06
2022-11-05T19:12:34.512Z,99344.31
2022-11-05T19:15:02.986Z,99303.31
2022-11-05T19:17:33.261Z,99337.34
2022-11-05T19:20:00.960Z,99353.47
2022-11-05T19:22:28.407Z,99288.97
2022-11-05T19:24:55.405Z,99298.19
2022-11-05T19:27:23.266Z,99299.69
2022-11-05T19:29:50.319Z,99309.88
2022-11-05T19:32:17.733Z,99337.78
2022-11-05T19:34:44.706Z,99354.66
2022-11-05T19:37:12.348Z,99315.66
2022-11-05T19:39:40.455Z,99309.34
2022-11-05T19:42:07.405Z,99351.38
2022-11-05T19:44:34.442Z,99331.00
2022-11-05T19:47:01.385Z,99342.88
2022-11-05T19:49:28.714Z,99315.28
2022-11-05T19:51:55.951Z,99300.28
2022-11-05T19:54:23.048Z,99311.78
2022-11-05T19:56:51.829Z,99307.91
2022-11-05T19:59:19.037Z,99333.75
2022-11-05T20:01:49.380Z,99290.94
2022-11-05T20:04:16.456Z,99313.94
2022-11-05T20:06:43.367Z,99291.16
2022-11-05T20:09:22.722Z,99345.88
2022-11-05T20:11:53.772Z,99309.84
2022-11-05T20:14:21.097Z,99351.69
2022-11-05T20:16:51.574Z,99306.41
2022-11-05T20:19:21.419Z,99320.13
2022-11-05T20:21:48.814Z,99298.75
2022-11-05T20:24:24.288Z,99305.28
2022-11-05T20:26:54.173Z,99286.56
2022-11-05T20:29:22.303Z,99307.53
2022-11-05T20:31:50.269Z,99343.81
2022-11-05T20:34:17.216Z,99336.97
2022-11-05T20:36:44.168Z,99335.59
2022-11-05T20:39:12.116Z,99306.91
2022-11-05T20:41:39.083Z,99307.75
2022-11-05T20:44:06.301Z,99269.38
2022-11-05T20:46:33.961Z,99319.16
2022-11-05T20:49:01.049Z,99305.47
2022-11-05T20:51:27.974Z,99345.13
2022-11-05T20:53:59.555Z,99326.91
2022-11-05T20:56:31.269Z,99301.81
2022-11-05T20:59:00.029Z,99283.69
2022-11-05T21:01:33.674Z,99298.69
2022-11-05T21:04:01.168Z,99338.63
2022-11-05T21:06:28.308Z,99321.34
2022-11-05T21:08:55.449Z,99305.78
2022-11-05T21:11:22.827Z,99334.94
2022-11-05T21:13:50.088Z,99342.47
2022-11-05T21:16:19.092Z,99325.84
2022-11-05T21:18:47.684Z,99318.38
2022-11-05T21:21:20.911Z,99305.50
2022-11-05T21:23:48.328Z,99337.13
2022-11-05T21:26:17.734Z,99327.06
2022-11-05T21:28:44.767Z,99395.41
2022-11-05T21:31:12.009Z,99349.69
2022-11-05T21:33:39.200Z,99340.50
2022-11-05T21:36:12.897Z,99363.16
2022-11-05T21:38:40.999Z,99385.69
2022-11-05T21:41:10.414Z,99339.13
2022-11-05T21:43:39.610Z,99353.72
2022-11-05T21:46:06.536Z,99342.38
2022-11-05T21:48:33.969Z,99310.28
2022-11-05T21:51:19.773Z,99341.91
2022-11-05T21:54:05.951Z,99351.94
2022-11-05T21:56:52.305Z,99327.53
2022-11-05T21:59:42.246Z,99340.66
2022-11-05T22:02:13.103Z,99332.53
2022-11-05T22:04:44.196Z,99297.59
2022-11-05T22:07:14.904Z,99289.44
2022-11-05T22:09:42.949Z,99296.59
2022-11-05T22:12:10.850Z,99352.22
2022-11-05T22:14:38.099Z,99329.59
2022-11-05T22:17:07.534Z,99311.03
2022-11-05T22:19:35.599Z,99328.25
2022-11-05T22:22:05.127Z,99306.09
2022-11-05T22:24:33.302Z,99348.78
2022-11-05T22:27:02.902Z,99350.91
2022-11-05T22:29:30.249Z,99346.97
2022-11-05T22:31:57.219Z,99270.59
2022-11-05T22:34:25.723Z,99341.22
2022-11-05T22:36:53.435Z,99322.94
2022-11-05T22:39:21.088Z,99266.72
2022-11-05T22:41:49.665Z,99332.66
2022-11-05T22:44:17.251Z,99275.13
2022-11-05T22:46:44.534Z,99237.03
2022-11-05T22:49:12.134Z,99255.91
2022-11-05T22:51:40.202Z,99298.16
2022-11-05T22:54:08.061Z,99284.66
2022-11-05T22:56:39.265Z,99272.03
2022-11-05T22:59:12.051Z,99288.16
2022-11-05T23:01:43.505Z,99281.31
2022-11-05T23:04:11.611Z,99298.16
2022-11-05T23:06:57.666Z,99243.56
2022-11-05T23:09:50.978Z,99261.81
2022-11-05T23:12:37.920Z,99253.66
2022-11-05T23:15:07.621Z,99235.56
2022-11-05T23:17:53.245Z,99264.97
2022-11-05T23:20:41.877Z,99289.50
2022-11-05T23:23:31.457Z,99231.41
2022-11-05T23:26:00.072Z,99214.16
2022-11-05T23:28:27.188Z,99306.28
2022-11-05T23:31:12.571Z,99315.09
2022-11-05T23:33:39.803Z,99346.38
2022-11-05T23:36:25.842Z,99303.56
2022-11-05T23:38:53.019Z,99334.19
2022-11-05T23:41:41.707Z,99288.63
2022-11-05T23:44:28.166Z,99258.75
2022-11-05T23:47:15.966Z,99260.53
2022-11-05T23:49:43.110Z,99267.78
2022-11-05T23:52:10.143Z,99240.72
2022-11-05T23:54:37.161Z,99252.84
2022-11-05T23:57:04.652Z,99226.94
2022-11-05T23:59:31.686Z,99254.91
